| time (UTC) | temp F | wind direction | speed MPH | gust MPH | rain 1hr in | rain 24hr in | rain mn in | humidity % | barometer mb |
| 20260509215530 | 42 | 129 | 3.0 | 8.0 | 0.01 | 0.75 | 0.75 | 96 | 1009.1 |
| 20260509215028 | 42 | 88 | 2.0 | 7.0 | 0.01 | 0.75 | 0.75 | 96 | 1009.1 |
| 20260509214548 | 42 | 98 | 2.0 | 7.0 | 0.01 | 0.75 | 0.75 | 96 | 1009.1 |
| 20260509214028 | 42 | 115 | 2.0 | 6.0 | 0.01 | 0.75 | 0.75 | 96 | 1009.2 |
| 20260509213531 | 42 | 0 | 2.0 | 7.0 | 0.02 | 0.75 | 0.75 | 96 | 1009.4 |
| 20260509213101 | 42 | 96 | 2.0 | 8.0 | 0.02 | 0.75 | 0.75 | 96 | 1009.5 |
| 20260509212528 | 42 | 0 | 3.0 | 8.0 | 0.02 | 0.75 | 0.75 | 96 | 1009.4 |
| 20260509212028 | 41 | 113 | 2.0 | 7.0 | 0.03 | 0.75 | 0.75 | 96 | 1009.4 |
| 20260509211608 | 41 | 130 | 3.0 | 8.0 | 0.03 | 0.75 | 0.75 | 96 | 1009.5 |
| 20260509211032 | 41 | 134 | 3.0 | 9.0 | 0.03 | 0.75 | 0.75 | 96 | 1009.5 |
| 20260509210529 | 41 | 95 | 3.0 | 10.0 | 0.03 | 0.75 | 0.75 | 96 | 1009.6 |
| 20260509210044 | 41 | 121 | 4.0 | 10.0 | 0.04 | 0.75 | 0.75 | 96 | 1009.6 |
| 20260509205531 | 41 | 123 | 2.0 | 9.0 | 0.03 | 0.74 | 0.74 | 96 | 1009.6 |
| 20260509205031 | 41 | 133 | 2.0 | 9.0 | 0.04 | 0.74 | 0.74 | 96 | 1009.7 |
| 20260509204557 | 41 | 137 | 2.0 | 8.0 | 0.04 | 0.74 | 0.74 | 96 | 1009.7 |
| 20260509204032 | 41 | 112 | 3.0 | 11.0 | 0.05 | 0.74 | 0.74 | 96 | 1009.8 |
| 20260509203528 | 41 | 127 | 2.0 | 11.0 | 0.05 | 0.73 | 0.73 | 96 | 1009.8 |
| 20260509203052 | 41 | 146 | 1.0 | 9.0 | 0.05 | 0.73 | 0.73 | 96 | 1010.0 |
| 20260509202528 | 41 | 142 | 1.0 | 10.0 | 0.06 | 0.73 | 0.73 | 96 | 1010.0 |
| 20260509202028 | 41 | 201 | 2.0 | 10.0 | 0.05 | 0.72 | 0.72 | 96 | 1010.0 |
| 20260509201537 | 41 | 115 | 4.0 | 8.0 | 0.06 | 0.72 | 0.72 | 96 | 1010.0 |
| 20260509201030 | 41 | 123 | 2.0 | 9.0 | 0.06 | 0.72 | 0.72 | 96 | 1010.0 |
| 20260509200530 | 41 | 115 | 4.0 | 10.0 | 0.07 | 0.72 | 0.72 | 96 | 1010.0 |
| 20260509200046 | 41 | 117 | 4.0 | 10.0 | 0.07 | 0.71 | 0.71 | 96 | 1010.0 |
| 20260509195531 | 41 | 89 | 2.0 | 8.0 | 0.08 | 0.71 | 0.71 | 96 | 1010.0 |
| 20260509195031 | 41 | 132 | 3.0 | 8.0 | 0.08 | 0.70 | 0.70 | 96 | 1010.0 |
| 20260509194546 | 41 | 53 | 3.0 | 8.0 | 0.09 | 0.70 | 0.70 | 96 | 1010.0 |
| 20260509194030 | 41 | 0 | 0.0 | 5.0 | 0.09 | 0.69 | 0.69 | 96 | 1010.0 |
| 20260509193534 | 41 | 123 | 1.0 | 5.0 | 0.09 | 0.68 | 0.68 | 96 | 1009.9 |
| 20260509193046 | 41 | 65 | 1.0 | 7.0 | 0.11 | 0.68 | 0.68 | 96 | 1009.9 |
| 20260509192528 | 40 | 131 | 2.0 | 7.0 | 0.11 | 0.67 | 0.67 | 96 | 1010.1 |
| 20260509192030 | 40 | 0 | 2.0 | 7.0 | 0.12 | 0.67 | 0.67 | 96 | 1010.1 |
| 20260509191544 | 40 | 103 | 2.0 | 7.0 | 0.12 | 0.66 | 0.66 | 96 | 1010.1 |
| 20260509191035 | 40 | 105 | 4.0 | 7.0 | 0.12 | 0.65 | 0.65 | 95 | 1010.2 |
| 20260509190530 | 40 | 141 | 2.0 | 7.0 | 0.13 | 0.65 | 0.65 | 96 | 1010.3 |
| 20260509190049 | 41 | 136 | 1.0 | 7.0 | 0.14 | 0.64 | 0.64 | 96 | 1010.4 |
| 20260509185531 | 40 | 148 | 2.0 | 7.0 | 0.14 | 0.63 | 0.63 | 96 | 1010.4 |
| 20260509185030 | 40 | 123 | 2.0 | 8.0 | 0.14 | 0.62 | 0.62 | 96 | 1010.3 |
| 20260509184547 | 40 | 0 | 2.0 | 8.0 | 0.14 | 0.61 | 0.61 | 96 | 1010.4 |
| 20260509184028 | 40 | 124 | 1.0 | 9.0 | 0.14 | 0.60 | 0.60 | 96 | 1010.6 |
| 20260509183533 | 40 | 166 | 4.0 | 9.0 | 0.14 | 0.58 | 0.58 | 96 | 1010.7 |
| 20260509183043 | 40 | 149 | 3.0 | 7.0 | 0.13 | 0.57 | 0.57 | 96 | 1010.7 |
| 20260509182527 | 40 | 125 | 3.0 | 7.0 | 0.13 | 0.56 | 0.56 | 96 | 1010.7 |
| 20260509182030 | 40 | 140 | 2.0 | 10.0 | 0.13 | 0.55 | 0.55 | 96 | 1010.6 |
| 20260509181545 | 40 | 0 | 2.0 | 10.0 | 0.13 | 0.54 | 0.54 | 96 | 1010.7 |
| 20260509181030 | 40 | 87 | 4.0 | 10.0 | 0.14 | 0.52 | 0.52 | 96 | 1010.7 |
| 20260509180530 | 40 | 85 | 2.0 | 9.0 | 0.13 | 0.51 | 0.51 | 96 | 1010.6 |
| 20260509180055 | 40 | 126 | 3.0 | 8.0 | 0.13 | 0.50 | 0.50 | 96 | 1010.7 |
| 20260509175530 | 40 | 157 | 1.0 | 6.0 | 0.13 | 0.49 | 0.49 | 96 | 1010.7 |
| 20260509175033 | 40 | 0 | 2.0 | 6.0 | 0.13 | 0.48 | 0.48 | 96 | 1010.7 |
| 20260509174540 | 40 | 112 | 2.0 | 8.0 | 0.13 | 0.47 | 0.47 | 96 | 1010.8 |
| 20260509174032 | 40 | 123 | 3.0 | 8.0 | 0.13 | 0.46 | 0.46 | 95 | 1010.8 |
| 20260509173532 | 40 | 123 | 4.0 | 8.0 | 0.13 | 0.45 | 0.45 | 95 | 1010.8 |
| 20260509173044 | 40 | 131 | 2.0 | 6.0 | 0.13 | 0.44 | 0.44 | 95 | 1010.8 |
| 20260509172534 | 40 | 125 | 2.0 | 7.0 | 0.13 | 0.43 | 0.43 | 95 | 1010.9 |
| 20260509172033 | 40 | 94 | 1.0 | 7.0 | 0.13 | 0.42 | 0.42 | 95 | 1011.0 |
| 20260509171545 | 40 | 0 | 2.0 | 7.0 | 0.13 | 0.41 | 0.41 | 95 | 1011.0 |
| 20260509171032 | 40 | 178 | 2.0 | 8.0 | 0.11 | 0.39 | 0.39 | 95 | 1011.0 |
| 20260509170534 | 39 | 132 | 4.0 | 8.0 | 0.11 | 0.38 | 0.38 | 95 | 1010.9 |
| 20260509170046 | 39 | 125 | 2.0 | 8.0 | 0.11 | 0.37 | 0.37 | 95 | 1011.0 |
| 20260509165532 | 39 | 138 | 2.0 | 8.0 | 0.10 | 0.36 | 0.36 | 95 | 1011.0 |
| 20260509165032 | 40 | 126 | 2.0 | 7.0 | 0.10 | 0.35 | 0.35 | 95 | 1011.0 |
| 20260509164544 | 40 | 105 | 1.0 | 6.0 | 0.10 | 0.34 | 0.34 | 95 | 1011.0 |
| 20260509164031 | 39 | 0 | 0.0 | 6.0 | 0.10 | 0.33 | 0.33 | 95 | 1011.0 |
| 20260509163535 | 39 | 161 | 3.0 | 5.0 | 0.10 | 0.32 | 0.32 | 95 | 1011.1 |
| 20260509163050 | 39 | 0 | 2.0 | 6.0 | 0.11 | 0.31 | 0.31 | 95 | 1011.2 |
| 20260509162532 | 39 | 0 | 2.0 | 7.0 | 0.10 | 0.30 | 0.30 | 95 | 1011.2 |
| 20260509162032 | 39 | 118 | 3.0 | 7.0 | 0.10 | 0.29 | 0.29 | 95 | 1011.4 |
| 20260509161546 | 39 | 103 | 2.0 | 6.0 | 0.10 | 0.28 | 0.28 | 95 | 1011.3 |
| 20260509161033 | 39 | 161 | 2.0 | 8.0 | 0.11 | 0.28 | 0.28 | 95 | 1011.5 |
| 20260509160534 | 39 | 178 | 2.0 | 8.0 | 0.11 | 0.27 | 0.27 | 95 | 1011.6 |
| 20260509160051 | 39 | 0 | 3.0 | 8.0 | 0.11 | 0.26 | 0.26 | 95 | 1011.5 |
| 20260509155532 | 39 | 140 | 0.0 | 5.0 | 0.12 | 0.26 | 0.26 | 95 | 1011.6 |
| 20260509155031 | 38 | 138 | 3.0 | 6.0 | 0.12 | 0.25 | 0.25 | 95 | 1011.7 |
| 20260509154542 | 38 | 130 | 2.0 | 6.0 | 0.11 | 0.24 | 0.24 | 95 | 1011.8 |
| 20260509154035 | 38 | 159 | 1.0 | 8.0 | 0.11 | 0.23 | 0.23 | 95 | 1011.9 |
| 20260509153532 | 38 | 169 | 1.0 | 8.0 | 0.09 | 0.21 | 0.21 | 95 | 1011.9 |
| 20260509153045 | 38 | 165 | 2.0 | 7.0 | 0.09 | 0.20 | 0.20 | 95 | 1012.1 |
| 20260509152529 | 38 | 90 | 1.0 | 10.0 | 0.08 | 0.19 | 0.19 | 95 | 1012.0 |
| 20260509152029 | 38 | 96 | 2.0 | 10.0 | 0.09 | 0.19 | 0.19 | 95 | 1012.0 |
| 20260509151544 | 38 | 166 | 3.0 | 7.0 | 0.08 | 0.18 | 0.18 | 95 | 1012.1 |
| 20260509151032 | 38 | 131 | 1.0 | 6.0 | 0.08 | 0.17 | 0.17 | 95 | 1012.0 |
| 20260509150533 | 38 | 120 | 2.0 | 7.0 | 0.07 | 0.16 | 0.16 | 95 | 1012.1 |
| 20260509150049 | 38 | 115 | 4.0 | 7.0 | 0.06 | 0.15 | 0.15 | 95 | 1012.1 |
| 20260509145531 | 38 | 134 | 2.0 | 9.0 | 0.06 | 0.14 | 0.14 | 95 | 1012.1 |
| 20260509145033 | 38 | 167 | 3.0 | 9.0 | 0.05 | 0.13 | 0.13 | 94 | 1012.1 |
| 20260509144544 | 38 | 146 | 3.0 | 8.0 | 0.06 | 0.13 | 0.13 | 94 | 1012.1 |
| 20260509144029 | 38 | 116 | 2.0 | 10.0 | 0.05 | 0.12 | 0.12 | 94 | 1012.1 |
| 20260509143533 | 38 | 139 | 4.0 | 10.0 | 0.06 | 0.12 | 0.12 | 94 | 1012.0 |
| 20260509143050 | 38 | 160 | 3.0 | 8.0 | 0.06 | 0.11 | 0.11 | 94 | 1012.1 |
| 20260509142532 | 38 | 140 | 2.0 | 8.0 | 0.06 | 0.11 | 0.11 | 94 | 1011.9 |
| 20260509142029 | 38 | 136 | 3.0 | 8.0 | 0.06 | 0.10 | 0.10 | 94 | 1011.9 |
| 20260509141546 | 38 | 90 | 3.0 | 8.0 | 0.06 | 0.10 | 0.10 | 94 | 1011.9 |
| 20260509141029 | 38 | 128 | 3.0 | 8.0 | 0.06 | 0.09 | 0.09 | 94 | 1011.9 |
| 20260509140529 | 38 | 0 | 3.0 | 8.0 | 0.06 | 0.09 | 0.09 | 94 | 1011.8 |
| 20260509140048 | 38 | 120 | 2.0 | 10.0 | 0.07 | 0.09 | 0.09 | 94 | 1011.8 |
| 20260509135530 | 38 | 99 | 4.0 | 10.0 | 0.06 | 0.08 | 0.08 | 93 | 1011.8 |
| 20260509135031 | 38 | 141 | 5.0 | 10.0 | 0.06 | 0.08 | 0.08 | 93 | 1011.7 |
| 20260509134550 | 38 | 108 | 2.0 | 10.0 | 0.06 | 0.07 | 0.07 | 93 | 1011.7 |
| 20260509134029 | 38 | 132 | 3.0 | 10.0 | 0.05 | 0.06 | 0.06 | 93 | 1011.9 |
| 20260509133529 | 38 | 134 | 3.0 | 9.0 | 0.06 | 0.06 | 0.06 | 93 | 1011.8 |
| 20260509133057 | 38 | 118 | 3.0 | 7.0 | 0.05 | 0.05 | 0.05 | 93 | 1011.9 |
| 20260509132532 | 38 | 157 | 2.0 | 7.0 | 0.05 | 0.05 | 0.05 | 92 | 1011.9 |
| 20260509132028 | 38 | 136 | 1.0 | 7.0 | 0.04 | 0.04 | 0.04 | 92 | 1011.9 |
| 20260509131544 | 38 | 0 | 2.0 | 8.0 | 0.04 | 0.04 | 0.04 | 92 | 1011.9 |
| 20260509131033 | 38 | 115 | 3.0 | 8.0 | 0.03 | 0.03 | 0.03 | 91 | 1011.9 |
| 20260509130532 | 38 | 189 | 2.0 | 10.0 | 0.03 | 0.03 | 0.03 | 91 | 1011.8 |
| 20260509130045 | 38 | 181 | 3.0 | 10.0 | 0.02 | 0.02 | 0.02 | 90 | 1011.9 |
| 20260509125529 | 38 | 134 | 2.0 | 8.0 | 0.02 | 0.02 | 0.02 | 90 | 1011.8 |
| 20260509125032 | 38 | 134 | 2.0 | 8.0 | 0.01 | 0.01 | 0.01 | 89 | 1011.9 |
| 20260509124551 | 38 | 188 | 3.0 | 6.0 | 0.01 | 0.01 | 0.01 | 88 | 1011.8 |
| 20260509124032 | 38 | 126 | 1.0 | 4.0 | 0.01 | 0.01 | 0.01 | 87 | 1011.7 |
| 20260509123529 | 38 | 0 | 0.0 | 4.0 | 0.00 | 0.00 | 0.00 | 86 | 1011.8 |
| 20260509123047 | 39 | 185 | 0.0 | 4.0 | 0.00 | 0.00 | 0.00 | 86 | 1011.9 |
| 20260509122532 | 39 | 161 | 1.0 | 4.0 | 0.00 | 0.00 | 0.00 | 85 | 1011.9 |
| 20260509122032 | 38 | 0 | 1.0 | 4.0 | 0.00 | 0.00 | 0.00 | 84 | 1011.9 |
| 20260509121541 | 39 | 119 | 1.0 | 5.0 | 0.00 | 0.00 | 0.00 | 84 | 1011.9 |
| 20260509121034 | 39 | 110 | 2.0 | 6.0 | 0.00 | 0.00 | 0.00 | 83 | 1012.0 |
| 20260509120532 | 39 | 147 | 2.0 | 6.0 | 0.00 | 0.00 | 0.00 | 82 | 1012.0 |
| 20260509120048 | 38 | 124 | 2.0 | 8.0 | 0.00 | 0.00 | 0.00 | 81 | 1012.1 |
| 20260509115531 | 38 | 152 | 2.0 | 8.0 | 0.00 | 0.00 | 0.00 | 80 | 1012.1 |
| 20260509115029 | 38 | 79 | 3.0 | 8.0 | 0.00 | 0.00 | 0.00 | 80 | 1012.1 |
| 20260509114554 | 38 | 112 | 2.0 | 6.0 | 0.00 | 0.00 | 0.00 | 79 | 1012.2 |
| 20260509114034 | 38 | 126 | 0.0 | 7.0 | 0.00 | 0.00 | 0.00 | 79 | 1012.2 |
| 20260509113529 | 38 | 0 | 1.0 | 7.0 | 0.00 | 0.00 | 0.00 | 79 | 1012.4 |
| 20260509113045 | 38 | 190 | 2.0 | 7.0 | 0.00 | 0.00 | 0.00 | 79 | 1012.1 |
| 20260509112529 | 38 | 0 | 1.0 | 8.0 | 0.00 | 0.00 | 0.00 | 78 | 1012.2 |
| 20260509112028 | 38 | 153 | 3.0 | 8.0 | 0.00 | 0.00 | 0.00 | 78 | 1012.2 |
| 20260509111544 | 38 | 113 | 2.0 | 8.0 | 0.00 | 0.00 | 0.00 | 78 | 1012.3 |
| 20260509111028 | 38 | 167 | 3.0 | 9.0 | 0.00 | 0.00 | 0.00 | 77 | 1012.2 |
| 20260509110529 | 38 | 59 | 3.0 | 10.0 | 0.00 | 0.00 | 0.00 | 76 | 1012.2 |
| 20260509110043 | 38 | 151 | 3.0 | 10.0 | 0.00 | 0.00 | 0.00 | 76 | 1012.2 |
| 20260509105533 | 38 | 119 | 3.0 | 12.0 | 0.00 | 0.00 | 0.00 | 75 | 1012.2 |
| 20260509105029 | 38 | 115 | 4.0 | 12.0 | 0.00 | 0.00 | 0.00 | 74 | 1012.2 |
| 20260509104541 | 38 | 123 | 5.0 | 12.0 | 0.00 | 0.00 | 0.00 | 73 | 1012.2 |
| 20260509104028 | 38 | 118 | 5.0 | 11.0 | 0.00 | 0.00 | 0.00 | 72 | 1012.2 |
| 20260509103529 | 38 | 144 | 5.0 | 12.0 | 0.00 | 0.00 | 0.00 | 72 | 1012.1 |
| 20260509103046 | 38 | 150 | 5.0 | 12.0 | 0.00 | 0.00 | 0.00 | 71 | 1012.2 |
| 20260509102530 | 38 | 123 | 5.0 | 12.0 | 0.00 | 0.00 | 0.00 | 70 | 1012.1 |
| 20260509102029 | 38 | 121 | 4.0 | 11.0 | 0.00 | 0.00 | 0.00 | 70 | 1012.2 |
| 20260509101545 | 38 | 104 | 5.0 | 11.0 | 0.00 | 0.00 | 0.00 | 70 | 1012.1 |
| 20260509101028 | 38 | 127 | 3.0 | 11.0 | 0.00 | 0.00 | 0.00 | 70 | 1012.1 |
| 20260509100530 | 38 | 92 | 2.0 | 7.0 | 0.00 | 0.00 | 0.00 | 70 | 1012.0 |
| 20260509100053 | 38 | 82 | 3.0 | 8.0 | 0.00 | 0.00 | 0.00 | 70 | 1011.9 |
| 20260509095529 | 38 | 103 | 1.0 | 8.0 | 0.00 | 0.00 | 0.00 | 70 | 1012.1 |
| 20260509095029 | 38 | 68 | 3.0 | 8.0 | 0.00 | 0.00 | 0.00 | 69 | 1012.0 |
| 20260509094545 | 38 | 127 | 2.0 | 9.0 | 0.00 | 0.00 | 0.00 | 69 | 1012.0 |
| 20260509094028 | 37 | 126 | 2.0 | 9.0 | 0.00 | 0.00 | 0.00 | 69 | 1012.2 |
| 20260509093529 | 37 | 138 | 3.0 | 9.0 | 0.00 | 0.00 | 0.00 | 69 | 1012.1 |
| 20260509093041 | 37 | 131 | 3.0 | 9.0 | 0.00 | 0.00 | 0.00 | 69 | 1012.2 |
| 20260509092530 | 37 | 194 | 4.0 | 9.0 | 0.00 | 0.00 | 0.00 | 69 | 1012.1 |
| 20260509092029 | 37 | 103 | 3.0 | 8.0 | 0.00 | 0.00 | 0.00 | 69 | 1012.1 |
| 20260509091538 | 37 | 130 | 4.0 | 8.0 | 0.00 | 0.00 | 0.00 | 68 | 1012.1 |
| 20260509091029 | 37 | 146 | 4.0 | 8.0 | 0.00 | 0.00 | 0.00 | 68 | 1012.1 |
| 20260509090529 | 38 | 193 | 3.0 | 9.0 | 0.00 | 0.00 | 0.00 | 67 | 1012.1 |
| 20260509090045 | 38 | 140 | 2.0 | 9.0 | 0.00 | 0.00 | 0.00 | 67 | 1012.1 |
| 20260509085529 | 38 | 117 | 3.0 | 8.0 | 0.00 | 0.00 | 0.00 | 67 | 1012.0 |
| 20260509085030 | 38 | 137 | 3.0 | 8.0 | 0.00 | 0.00 | 0.00 | 67 | 1012.0 |
| 20260509084549 | 38 | 145 | 2.0 | 6.0 | 0.00 | 0.00 | 0.00 | 66 | 1011.9 |
| 20260509084031 | 37 | 169 | 3.0 | 6.0 | 0.00 | 0.00 | 0.00 | 67 | 1011.8 |
| 20260509083531 | 37 | 141 | 1.0 | 4.0 | 0.00 | 0.00 | 0.00 | 69 | 1011.7 |
| 20260509083042 | 37 | 146 | 2.0 | 3.0 | 0.00 | 0.00 | 0.00 | 69 | 1011.9 |
| 20260509082529 | 37 | 146 | 1.0 | 5.0 | 0.00 | 0.00 | 0.00 | 69 | 1011.7 |
| 20260509082032 | 37 | 146 | 1.0 | 5.0 | 0.00 | 0.00 | 0.00 | 68 | 1011.5 |
| 20260509081542 | 37 | 180 | 2.0 | 5.0 | 0.00 | 0.00 | 0.00 | 69 | 1011.7 |
| 20260509081031 | 37 | 149 | 0.0 | 4.0 | 0.00 | 0.00 | 0.00 | 70 | 1011.6 |
| 20260509080532 | 37 | 149 | 1.0 | 4.0 | 0.00 | 0.00 | 0.00 | 69 | 1011.6 |
| 20260509080055 | 37 | 155 | 2.0 | 4.0 | 0.00 | 0.00 | 0.00 | 68 | 1011.5 |
| 20260509075531 | 37 | 133 | 1.0 | 4.0 | 0.00 | 0.00 | 0.00 | 69 | 1011.4 |
| 20260509075030 | 37 | 135 | 1.0 | 4.0 | 0.00 | 0.00 | 0.00 | 68 | 1011.4 |
| 20260509074546 | 38 | 134 | 1.0 | 3.0 | 0.00 | 0.00 | 0.00 | 66 | 1011.5 |
| 20260509074028 | 38 | 76 | 1.0 | 3.0 | 0.00 | 0.00 | 0.00 | 65 | 1011.5 |
| 20260509073529 | 38 | 0 | 0.0 | 0.0 | 0.00 | 0.00 | 0.00 | 63 | 1011.5 |
| 20260509073137 | 38 | 0 | 0.0 | 0.0 | 0.00 | 0.00 | 0.00 | 64 | 1011.4 |
| 20260509072532 | 38 | 0 | 0.0 | 0.0 | 0.00 | 0.00 | 0.00 | 61 | 1011.3 |
| 20260509072031 | 38 | 0 | 0.0 | 0.0 | 0.00 | 0.00 | 0.00 | 65 | 1011.4 |
| 20260509071546 | 38 | 0 | 0.0 | 0.0 | 0.00 | 0.00 | 0.00 | 65 | 1011.4 |
| 20260509071028 | 38 | 0 | 0.0 | 0.0 | 0.00 | 0.00 | 0.00 | 66 | 1011.4 |
| 20260509070532 | 37 | 0 | 0.0 | 0.0 | 0.00 | 0.00 | 0.00 | 67 | 1011.5 |
| 20260509070042 | 37 | 0 | 0.0 | 0.0 | 0.00 | 0.00 | 0.00 | 68 | 1011.6 |
| 20260509065532 | 37 | 0 | 0.0 | 0.0 | 0.00 | 0.00 | 0.00 | 69 | 1011.6 |
| 20260509065032 | 37 | 0 | 0.0 | 0.0 | 0.00 | 0.00 | 0.00 | 70 | 1011.6 |
| 20260509064543 | 37 | 0 | 0.0 | 0.0 | 0.00 | 0.00 | 0.00 | 70 | 1011.5 |
| 20260509064032 | 37 | 0 | 0.0 | 0.0 | 0.00 | 0.00 | 0.00 | 70 | 1011.6 |
| 20260509063531 | 37 | 0 | 0.0 | 0.0 | 0.00 | 0.00 | 0.00 | 70 | 1011.6 |
| 20260509063044 | 37 | 0 | 0.0 | 0.0 | 0.00 | 0.00 | 0.00 | 69 | 1011.7 |
| 20260509062530 | 37 | 0 | 0.0 | 0.0 | 0.00 | 0.00 | 0.00 | 69 | 1011.7 |
| 20260509062033 | 37 | 0 | 0.0 | 0.0 | 0.00 | 0.00 | 0.00 | 70 | 1011.7 |
| 20260509061552 | 37 | 0 | 0.0 | 0.0 | 0.00 | 0.00 | 0.00 | 69 | 1011.7 |
| 20260509061031 | 36 | 0 | 0.0 | 0.0 | 0.00 | 0.00 | 0.00 | 70 | 1011.9 |
| 20260509060528 | 36 | 0 | 0.0 | 0.0 | 0.00 | 0.00 | 0.00 | 70 | 1011.9 |
| 20260509060049 | 36 | 0 | 0.0 | 0.0 | 0.00 | 0.00 | 0.00 | 70 | 1011.9 |
| 20260509055532 | 36 | 0 | 0.0 | 0.0 | 0.00 | 0.00 | 0.00 | 71 | 1011.9 |
| 20260509055034 | 36 | 0 | 0.0 | 0.0 | 0.00 | 0.00 | 0.00 | 71 | 1012.1 |
| 20260509054546 | 37 | 0 | 0.0 | 0.0 | 0.00 | 0.00 | 0.00 | 71 | 1012.0 |
| 20260509054031 | 37 | 0 | 0.0 | 0.0 | 0.00 | 0.00 | 0.00 | 72 | 1012.2 |
| 20260509053531 | 37 | 0 | 0.0 | 0.0 | 0.00 | 0.00 | 0.00 | 71 | 1012.1 |
| 20260509053049 | 37 | 0 | 0.0 | 0.0 | 0.00 | 0.00 | 0.00 | 71 | 1012.1 |
| 20260509052532 | 37 | 0 | 0.0 | 4.0 | 0.00 | 0.00 | 0.00 | 70 | 1012.1 |
| 20260509052035 | 37 | 0 | 0.0 | 4.0 | 0.00 | 0.00 | 0.00 | 70 | 1012.1 |
| 20260509051556 | 37 | 0 | 0.0 | 4.0 | 0.00 | 0.00 | 0.00 | 70 | 1012.1 |
| 20260509051032 | 37 | 0 | 0.0 | 4.0 | 0.00 | 0.00 | 0.00 | 70 | 1012.1 |
| 20260509050532 | 36 | 195 | 1.0 | 4.0 | 0.00 | 0.00 | 0.00 | 71 | 1012.1 |
| 20260509050048 | 36 | 134 | 1.0 | 4.0 | 0.00 | 0.00 | 0.00 | 72 | 1012.0 |
| 20260509045531 | 36 | 0 | 1.0 | 4.0 | 0.00 | 0.00 | 0.00 | 73 | 1012.0 |
| 20260509045035 | 36 | 114 | 1.0 | 4.0 | 0.00 | 0.00 | 0.00 | 72 | 1012.0 |
| 20260509044545 | 37 | 0 | 0.0 | 3.0 | 0.00 | 0.00 | 0.00 | 72 | 1011.9 |
| 20260509044035 | 37 | 0 | 0.0 | 2.0 | 0.00 | 0.00 | 0.00 | 72 | 1011.8 |
| 20260509043536 | 37 | 0 | 0.0 | 2.0 | 0.00 | 0.00 | 0.00 | 72 | 1011.8 |
| 20260509043049 | 37 | 0 | 0.0 | 3.0 | 0.00 | 0.00 | 0.00 | 72 | 1011.8 |
| 20260509042531 | 37 | 0 | 0.0 | 3.0 | 0.00 | 0.00 | 0.00 | 73 | 1011.8 |
| 20260509042033 | 37 | 0 | 0.0 | 2.0 | 0.00 | 0.00 | 0.00 | 73 | 1011.7 |
| 20260509041546 | 37 | 0 | 0.0 | 2.0 | 0.00 | 0.00 | 0.00 | 73 | 1011.7 |
| 20260509041031 | 37 | 0 | 0.0 | 2.0 | 0.00 | 0.00 | 0.00 | 73 | 1011.6 |
| 20260509040532 | 37 | 0 | 0.0 | 1.0 | 0.00 | 0.00 | 0.00 | 73 | 1011.5 |
| 20260509040052 | 37 | 0 | 0.0 | 3.0 | 0.00 | 0.00 | 0.00 | 72 | 1011.6 |
| 20260509035532 | 37 | 0 | 0.0 | 3.0 | 0.00 | 0.00 | 0.00 | 72 | 1011.6 |
| 20260509035031 | 37 | 0 | 0.0 | 3.0 | 0.00 | 0.00 | 0.00 | 72 | 1011.5 |
| 20260509034543 | 37 | 0 | 0.0 | 5.0 | 0.00 | 0.00 | 0.00 | 73 | 1011.6 |
| 20260509034028 | 37 | 235 | 1.0 | 5.0 | 0.00 | 0.00 | 0.00 | 73 | 1011.7 |
| 20260509033528 | 37 | 234 | 1.0 | 6.0 | 0.00 | 0.00 | 0.00 | 73 | 1011.6 |
| 20260509033046 | 37 | 248 | 2.0 | 6.0 | 0.00 | 0.00 | 0.00 | 73 | 1011.6 |
| 20260509032532 | 37 | 236 | 2.0 | 8.0 | 0.00 | 0.00 | 0.00 | 73 | 1011.7 |
| 20260509032028 | 37 | 240 | 2.0 | 8.0 | 0.00 | 0.00 | 0.00 | 73 | 1011.6 |
| 20260509031546 | 37 | 227 | 1.0 | 4.0 | 0.00 | 0.00 | 0.00 | 73 | 1011.6 |
| 20260509031028 | 37 | 249 | 1.0 | 4.0 | 0.00 | 0.00 | 0.00 | 73 | 1011.6 |
| 20260509030531 | 37 | 249 | 1.0 | 4.0 | 0.00 | 0.00 | 0.00 | 73 | 1011.6 |
| 20260509030043 | 37 | 0 | 1.0 | 4.0 | 0.00 | 0.00 | 0.00 | 73 | 1011.5 |
| 20260509025530 | 37 | 209 | 0.0 | 3.0 | 0.00 | 0.00 | 0.00 | 73 | 1011.5 |
| 20260509025032 | 38 | 0 | 0.0 | 5.0 | 0.00 | 0.00 | 0.00 | 73 | 1011.5 |
| 20260509024537 | 38 | 0 | 0.0 | 5.0 | 0.00 | 0.00 | 0.00 | 72 | 1011.4 |
| 20260509024032 | 38 | 137 | 1.0 | 5.0 | 0.00 | 0.00 | 0.00 | 73 | 1011.4 |
| 20260509023531 | 38 | 213 | 0.0 | 4.0 | 0.00 | 0.00 | 0.00 | 72 | 1011.4 |
| 20260509023047 | 38 | 0 | 0.0 | 5.0 | 0.00 | 0.00 | 0.00 | 72 | 1011.4 |
| 20260509022531 | 38 | 222 | 2.0 | 9.0 | 0.00 | 0.00 | 0.00 | 72 | 1011.4 |
| 20260509022032 | 38 | 229 | 3.0 | 9.0 | 0.00 | 0.00 | 0.00 | 72 | 1011.3 |
| 20260509021543 | 38 | 246 | 2.0 | 4.0 | 0.00 | 0.00 | 0.00 | 72 | 1011.3 |
| 20260509021031 | 38 | 246 | 1.0 | 5.0 | 0.00 | 0.00 | 0.00 | 72 | 1011.3 |
| 20260509020531 | 38 | 247 | 2.0 | 5.0 | 0.00 | 0.00 | 0.00 | 72 | 1011.1 |
| 20260509020043 | 38 | 219 | 1.0 | 7.0 | 0.00 | 0.00 | 0.00 | 72 | 1011.1 |
| 20260509015535 | 39 | 202 | 3.0 | 7.0 | 0.00 | 0.00 | 0.00 | 71 | 1011.0 |
| 20260509015031 | 38 | 244 | 1.0 | 4.0 | 0.00 | 0.00 | 0.00 | 72 | 1010.9 |
| 20260509014543 | 39 | 0 | 1.0 | 4.0 | 0.00 | 0.00 | 0.00 | 72 | 1011.0 |
| 20260509014028 | 38 | 298 | 1.0 | 4.0 | 0.00 | 0.00 | 0.00 | 72 | 1010.9 |
| 20260509013533 | 38 | 250 | 1.0 | 4.0 | 0.00 | 0.00 | 0.00 | 72 | 1010.8 |
| 20260509013058 | 38 | 226 | 1.0 | 3.0 | 0.00 | 0.00 | 0.00 | 72 | 1010.9 |
| 20260509012532 | 38 | 240 | 1.0 | 4.0 | 0.00 | 0.00 | 0.00 | 72 | 1010.9 |
| 20260509012028 | 39 | 240 | 1.0 | 4.0 | 0.00 | 0.00 | 0.00 | 72 | 1010.9 |
| 20260509011539 | 39 | 233 | 2.0 | 4.0 | 0.00 | 0.00 | 0.00 | 72 | 1010.7 |
| 20260509011028 | 39 | 247 | 2.0 | 5.0 | 0.00 | 0.00 | 0.00 | 71 | 1010.7 |
| 20260509010531 | 39 | 231 | 2.0 | 7.0 | 0.00 | 0.00 | 0.00 | 71 | 1010.7 |
| 20260509010044 | 39 | 240 | 1.0 | 7.0 | 0.00 | 0.00 | 0.00 | 71 | 1010.5 |
| 20260509005532 | 39 | 244 | 2.0 | 7.0 | 0.00 | 0.00 | 0.00 | 71 | 1010.5 |
| 20260509005031 | 39 | 225 | 2.0 | 6.0 | 0.00 | 0.00 | 0.00 | 70 | 1010.5 |
| 20260509004608 | 39 | 257 | 2.0 | 6.0 | 0.00 | 0.00 | 0.00 | 71 | 1010.3 |
| 20260509004033 | 39 | 241 | 2.0 | 5.0 | 0.00 | 0.00 | 0.00 | 71 | 1010.2 |
| 20260509003532 | 39 | 241 | 2.0 | 7.0 | 0.00 | 0.00 | 0.00 | 70 | 1010.1 |
| 20260509003048 | 39 | 236 | 3.0 | 7.0 | 0.00 | 0.00 | 0.00 | 70 | 1009.9 |
| 20260509002533 | 40 | 239 | 3.0 | 9.0 | 0.00 | 0.00 | 0.00 | 70 | 1009.8 |
| 20260509002031 | 40 | 242 | 3.0 | 10.0 | 0.00 | 0.00 | 0.00 | 69 | 1009.7 |
| 20260509001544 | 40 | 261 | 5.0 | 10.0 | 0.00 | 0.00 | 0.00 | 70 | 1009.6 |
| 20260509001028 | 40 | 238 | 3.0 | 8.0 | 0.00 | 0.00 | 0.00 | 69 | 1009.7 |
| 20260509000531 | 40 | 211 | 4.0 | 10.0 | 0.00 | 0.00 | 0.00 | 69 | 1009.8 |
| 20260509000039 | 40 | 250 | 4.0 | 10.0 | 0.00 | 0.00 | 0.00 | 69 | 1009.8 |
| 20260508235530 | 40 | 221 | 3.0 | 7.0 | 0.00 | 0.00 | 0.00 | 69 | 1009.8 |
| 20260508235031 | 40 | 253 | 3.0 | 12.0 | 0.00 | 0.00 | 0.00 | 69 | 1009.8 |
| 20260508234546 | 40 | 248 | 3.0 | 12.0 | 0.00 | 0.00 | 0.00 | 70 | 1009.7 |
| 20260508234030 | 40 | 248 | 7.0 | 12.0 | 0.00 | 0.00 | 0.00 | 68 | 1009.5 |
| 20260508233532 | 40 | 240 | 5.0 | 11.0 | 0.00 | 0.00 | 0.00 | 69 | 1009.6 |
| 20260508233056 | 41 | 209 | 4.0 | 15.0 | 0.00 | 0.00 | 0.00 | 69 | 1009.5 |
| 20260508232532 | 41 | 263 | 4.0 | 15.0 | 0.00 | 0.00 | 0.00 | 69 | 1009.5 |
| 20260508232035 | 41 | 244 | 4.0 | 11.0 | 0.00 | 0.00 | 0.00 | 68 | 1009.5 |
| 20260508231544 | 41 | 257 | 4.0 | 11.0 | 0.00 | 0.00 | 0.00 | 68 | 1009.5 |
| 20260508231034 | 41 | 255 | 4.0 | 11.0 | 0.00 | 0.00 | 0.00 | 68 | 1009.5 |
| 20260508230531 | 41 | 263 | 3.0 | 11.0 | 0.00 | 0.00 | 0.00 | 68 | 1009.5 |
| 20260508230055 | 41 | 273 | 4.0 | 11.0 | 0.00 | 0.00 | 0.00 | 69 | 1009.4 |
| 20260508225531 | 41 | 263 | 2.0 | 11.0 | 0.00 | 0.00 | 0.00 | 70 | 1009.3 |
| 20260508225031 | 41 | 273 | 3.0 | 10.0 | 0.00 | 0.00 | 0.00 | 70 | 1009.4 |
| 20260508224544 | 41 | 249 | 4.0 | 13.0 | 0.00 | 0.00 | 0.00 | 69 | 1009.4 |
| 20260508224031 | 41 | 184 | 5.0 | 13.0 | 0.00 | 0.00 | 0.00 | 69 | 1009.3 |
| 20260508223531 | 41 | 224 | 5.0 | 11.0 | 0.00 | 0.00 | 0.00 | 69 | 1009.3 |
| 20260508223041 | 42 | 251 | 4.0 | 12.0 | 0.00 | 0.00 | 0.00 | 69 | 1009.3 |
| 20260508222530 | 42 | 216 | 5.0 | 12.0 | 0.00 | 0.00 | 0.00 | 68 | 1009.3 |
| 20260508222032 | 42 | 251 | 5.0 | 11.0 | 0.00 | 0.00 | 0.00 | 66 | 1009.2 |
| 20260508221546 | 43 | 261 | 3.0 | 8.0 | 0.00 | 0.00 | 0.00 | 66 | 1009.3 |
| 20260508221031 | 43 | 278 | 4.0 | 12.0 | 0.00 | 0.00 | 0.00 | 65 | 1009.4 |
| 20260508220531 | 44 | 264 | 4.0 | 12.0 | 0.00 | 0.00 | 0.00 | 64 | 1009.2 |
| 20260508220051 | 43 | 219 | 5.0 | 12.0 | 0.00 | 0.00 | 0.00 | 65 | 1009.3 |